createdAt,value
2023-01-12T00:00:49.658Z,27.55
2023-01-12T00:01:49.650Z,27.76
2023-01-12T00:02:49.628Z,29.52
2023-01-12T00:03:49.618Z,27.84
2023-01-12T00:04:49.614Z,29.34
2023-01-12T00:05:49.597Z,25.66
2023-01-12T00:06:49.584Z,28.28
2023-01-12T00:07:49.573Z,30.36
2023-01-12T00:08:49.553Z,30.78
2023-01-12T00:09:49.549Z,31.53
2023-01-12T00:10:49.534Z,32.98
2023-01-12T00:11:49.523Z,31.07
2023-01-12T00:12:49.499Z,28.64
2023-01-12T00:13:49.487Z,28.12
2023-01-12T00:14:49.476Z,30.91
2023-01-12T00:15:49.485Z,31.78
2023-01-12T00:16:49.463Z,28.38
2023-01-12T00:17:49.464Z,28.52
2023-01-12T00:18:49.528Z,28.07
2023-01-12T00:19:49.436Z,29.51
2023-01-12T00:20:49.427Z,28.77
2023-01-12T00:21:49.418Z,29.22
2023-01-12T00:22:49.417Z,27.37
2023-01-12T00:23:49.398Z,26.94
2023-01-12T00:24:49.387Z,29.30
2023-01-12T00:25:49.377Z,28.99
2023-01-12T00:26:49.365Z,27.58
2023-01-12T00:27:49.357Z,27.78
2023-01-12T00:28:49.364Z,27.30
2023-01-12T00:29:49.343Z,29.98
2023-01-12T00:30:49.327Z,30.72
2023-01-12T00:31:49.319Z,32.08
2023-01-12T00:32:49.302Z,29.80
2023-01-12T00:33:49.329Z,26.53
2023-01-12T00:34:49.310Z,25.85
2023-01-12T00:35:49.279Z,29.58
2023-01-12T00:36:49.268Z,31.20
2023-01-12T00:37:49.262Z,32.71
2023-01-12T00:38:49.256Z,27.97
2023-01-12T00:40:01.298Z,25.50
2023-01-12T00:40:50.232Z,25.79
2023-01-12T00:41:49.233Z,26.81
2023-01-12T00:42:49.212Z,28.52
2023-01-12T00:43:49.210Z,29.46
2023-01-12T00:44:49.205Z,28.75
2023-01-12T00:45:49.216Z,29.09
2023-01-12T00:46:49.191Z,28.80
2023-01-12T00:47:49.183Z,33.20
2023-01-12T00:48:49.162Z,32.11
2023-01-12T00:49:49.151Z,28.43
2023-01-12T00:50:49.148Z,29.18
2023-01-12T00:51:49.131Z,29.48
2023-01-12T00:52:49.114Z,31.97
2023-01-12T00:53:49.107Z,32.89
2023-01-12T00:54:49.090Z,31.82
2023-01-12T00:55:49.092Z,27.67
2023-01-12T00:56:49.099Z,26.21
2023-01-12T00:57:49.084Z,30.87
2023-01-12T00:58:49.050Z,32.49
2023-01-12T00:59:49.038Z,31.87
2023-01-12T01:00:49.109Z,27.17
2023-01-12T01:01:49.143Z,28.48
2023-01-12T01:02:49.060Z,26.88
2023-01-12T01:03:49.010Z,27.49
2023-01-12T01:04:48.998Z,34.88
2023-01-12T01:05:48.987Z,33.37
2023-01-12T01:06:48.978Z,29.31
2023-01-12T01:07:48.976Z,30.03
2023-01-12T01:08:48.955Z,32.10
2023-01-12T01:09:48.945Z,33.62
2023-01-12T01:10:48.930Z,31.03
2023-01-12T01:11:48.941Z,31.30
2023-01-12T01:12:48.922Z,31.41
2023-01-12T01:13:48.915Z,31.68
2023-01-12T01:14:48.917Z,31.73
2023-01-12T01:15:48.951Z,33.14
2023-01-12T01:16:48.892Z,35.90
2023-01-12T01:17:48.888Z,29.59
2023-01-12T01:18:48.872Z,26.70
2023-01-12T01:19:48.873Z,30.20
2023-01-12T01:20:48.861Z,33.33
2023-01-12T01:21:48.858Z,34.49
2023-01-12T01:22:48.859Z,32.48
2023-01-12T01:23:48.849Z,26.53
2023-01-12T01:24:48.834Z,28.59
2023-01-12T01:25:48.829Z,30.92
2023-01-12T01:26:48.831Z,36.20
2023-01-12T01:27:48.822Z,31.88
2023-01-12T01:28:48.818Z,29.22
2023-01-12T01:29:48.807Z,29.10
2023-01-12T01:30:48.855Z,30.46
2023-01-12T01:31:48.808Z,30.38
2023-01-12T01:32:48.793Z,35.62
2023-01-12T01:33:48.790Z,31.78
2023-01-12T01:34:48.782Z,27.21
2023-01-12T01:35:48.766Z,28.39
2023-01-12T01:36:48.761Z,30.13
2023-01-12T01:37:48.782Z,32.28
2023-01-12T01:38:48.749Z,34.58
2023-01-12T01:39:48.749Z,28.54
2023-01-12T01:40:48.730Z,28.76
2023-01-12T01:41:48.729Z,30.26
2023-01-12T01:42:48.723Z,32.59
2023-01-12T01:43:48.731Z,36.40
2023-01-12T01:44:48.707Z,31.83
2023-01-12T01:45:48.704Z,26.97
2023-01-12T01:46:48.692Z,28.37
2023-01-12T01:47:48.683Z,29.66
2023-01-12T01:48:48.682Z,33.27
2023-01-12T01:49:48.671Z,33.55
2023-01-12T01:50:48.665Z,29.54
2023-01-12T01:51:48.651Z,27.62
2023-01-12T01:52:48.644Z,30.16
2023-01-12T01:53:48.645Z,30.22
2023-01-12T01:54:48.626Z,30.65
2023-01-12T01:55:48.620Z,31.39
2023-01-12T01:56:48.621Z,31.64
2023-01-12T01:57:48.626Z,31.44
2023-01-12T01:58:48.622Z,31.56
2023-01-12T01:59:48.625Z,32.81
2023-01-12T02:00:48.692Z,33.26
2023-01-12T02:01:48.660Z,33.84
2023-01-12T02:02:48.660Z,25.00
2023-01-12T02:03:48.607Z,29.91
2023-01-12T02:04:48.603Z,29.68
2023-01-12T02:05:48.613Z,34.64
2023-01-12T02:06:48.586Z,35.87
2023-01-12T02:07:48.589Z,30.01
2023-01-12T02:08:48.584Z,30.28
2023-01-12T02:09:48.571Z,30.19
2023-01-12T02:10:48.564Z,30.70
2023-01-12T02:11:48.562Z,32.88
2023-01-12T02:12:48.561Z,32.50
2023-01-12T02:13:48.561Z,29.75
2023-01-12T02:14:48.972Z,28.67
2023-01-12T02:15:48.570Z,31.68
2023-01-12T02:16:48.535Z,31.29
2023-01-12T02:17:48.532Z,34.99
2023-01-12T02:18:48.533Z,30.99
2023-01-12T02:19:48.528Z,29.98
2023-01-12T02:20:48.706Z,28.66
2023-01-12T02:21:48.522Z,30.31
2023-01-12T02:22:48.521Z,33.77
2023-01-12T02:23:48.542Z,35.24
2023-01-12T02:24:48.514Z,28.37
2023-01-12T02:25:48.514Z,30.90
2023-01-12T02:26:48.506Z,27.75
2023-01-12T02:27:48.505Z,32.86
2023-01-12T02:28:48.499Z,32.29
2023-01-12T02:29:48.498Z,30.18
2023-01-12T02:30:48.484Z,28.02
2023-01-12T02:31:48.481Z,29.69
2023-01-12T02:32:48.482Z,31.19
2023-01-12T02:33:48.477Z,32.74
2023-01-12T02:34:48.471Z,34.78
2023-01-12T02:35:48.462Z,25.47
2023-01-12T02:36:48.461Z,30.83
2023-01-12T02:37:48.469Z,29.33
2023-01-12T02:38:48.463Z,32.29
2023-01-12T02:39:48.449Z,33.73
2023-01-12T02:40:48.457Z,34.23
2023-01-12T02:41:48.435Z,29.37
2023-01-12T02:42:48.540Z,28.75
2023-01-12T02:43:48.435Z,29.73
2023-01-12T02:44:48.437Z,33.48
2023-01-12T02:45:48.427Z,33.58
2023-01-12T02:46:48.473Z,30.90
2023-01-12T02:47:48.421Z,29.25
2023-01-12T02:48:48.416Z,27.32
2023-01-12T05:31:47.560Z,36.29
2023-01-12T05:32:47.553Z,37.76
2023-01-12T05:33:47.552Z,38.09
2023-01-12T05:34:47.541Z,37.78
2023-01-12T05:35:47.582Z,33.44
2023-01-12T05:36:47.544Z,33.15
2023-01-12T05:37:47.540Z,34.29
2023-01-12T05:38:47.547Z,38.77
2023-01-12T05:39:47.541Z,40.30
2023-01-12T05:40:47.545Z,39.66
2023-01-12T05:41:47.532Z,36.21
2023-01-12T05:42:47.548Z,35.26
2023-01-12T05:43:47.537Z,35.48
2023-01-12T05:44:47.532Z,36.48
2023-01-12T05:45:47.572Z,36.49
2023-01-12T05:46:47.527Z,37.01
2023-01-12T05:47:47.522Z,36.82
2023-01-12T05:48:47.523Z,35.55
2023-01-12T05:49:47.508Z,36.25
2023-01-12T05:50:47.520Z,37.02
2023-01-12T05:51:47.504Z,38.26
2023-01-12T05:52:47.506Z,35.61
2023-01-12T05:53:47.526Z,35.69
2023-01-12T05:54:47.497Z,35.58
2023-01-12T05:55:47.493Z,36.45
2023-01-12T05:56:49.769Z,37.17
2023-01-12T05:57:47.492Z,38.03
2023-01-12T05:58:47.489Z,38.20
2023-01-12T05:59:47.472Z,34.15
2023-01-12T06:00:47.477Z,38.64
2023-01-12T06:01:47.490Z,38.42
2023-01-12T06:02:47.474Z,40.02
2023-01-12T06:03:47.467Z,38.00
2023-01-12T06:04:47.492Z,38.10
2023-01-12T06:05:47.448Z,37.87
2023-01-12T06:06:47.446Z,37.28
2023-01-12T06:07:47.441Z,38.38
2023-01-12T06:08:47.443Z,41.66
2023-01-12T06:09:47.435Z,37.05
2023-01-12T06:10:47.416Z,34.19
2023-01-12T06:11:47.412Z,36.40
2023-01-12T06:12:47.402Z,36.58
2023-01-12T06:13:47.424Z,36.89
2023-01-12T06:14:47.389Z,37.32
2023-01-12T06:15:47.408Z,35.19
2023-01-12T07:51:45.906Z,246.56
2023-01-12T10:43:43.948Z,217.16
2023-01-12T11:00:43.851Z,221.24
2023-01-12T11:07:43.711Z,227.06
2023-01-12T11:25:43.329Z,236.61
2023-01-12T11:50:42.807Z,146.64
2023-01-12T11:51:42.757Z,136.08
2023-01-12T11:52:42.739Z,112.49
2023-01-12T11:53:42.715Z,114.19
2023-01-12T11:54:42.697Z,120.72
2023-01-12T11:55:42.692Z,130.21
2023-01-12T11:56:42.680Z,139.65
2023-01-12T11:57:42.635Z,140.83
2023-01-12T11:58:42.602Z,146.99
2023-01-12T11:59:42.590Z,160.65
2023-01-12T12:00:42.582Z,164.92
2023-01-12T12:01:42.554Z,137.47
2023-01-12T12:02:42.611Z,140.66
2023-01-12T12:03:42.559Z,148.10
2023-01-12T12:04:42.487Z,160.99
2023-01-12T12:05:42.491Z,163.46
2023-01-12T12:06:42.442Z,133.20
2023-01-12T12:07:42.415Z,37.07
2023-01-12T12:08:42.401Z,52.36
2023-01-12T12:09:42.368Z,31.55
2023-01-12T12:10:42.353Z,34.82
2023-01-12T12:11:42.349Z,43.24
2023-01-12T12:12:42.326Z,25.71
2023-01-12T12:13:42.311Z,0.00
2023-01-12T12:14:42.309Z,0.17
2023-01-12T12:16:42.287Z,20.61
2023-01-12T12:18:42.268Z,38.19
2023-01-12T12:19:42.257Z,12.67
2023-01-12T12:23:42.231Z,49.35
2023-01-12T13:25:41.330Z,178.47
2023-01-12T13:26:41.383Z,179.12
2023-01-12T13:27:41.288Z,178.34
2023-01-12T13:28:41.283Z,176.35
2023-01-12T13:29:41.257Z,172.48
2023-01-12T13:30:41.234Z,173.76
2023-01-12T13:31:41.230Z,172.63
2023-01-12T13:32:41.219Z,172.25
2023-01-12T13:33:41.202Z,171.65
2023-01-12T13:34:41.178Z,174.17
2023-01-12T13:35:41.158Z,170.50
2023-01-12T13:36:41.155Z,169.95
2023-01-12T13:37:41.128Z,170.15
2023-01-12T13:38:41.128Z,169.52
2023-01-12T13:39:41.103Z,169.83
2023-01-12T13:40:41.097Z,169.63
2023-01-12T13:41:41.066Z,168.15
2023-01-12T13:42:41.053Z,167.98
2023-01-12T13:43:41.031Z,168.82
2023-01-12T13:44:41.015Z,165.48
2023-01-12T13:45:40.994Z,166.25
2023-01-12T13:46:40.992Z,167.26
2023-01-12T13:47:40.959Z,163.84
2023-01-12T13:48:40.951Z,164.33
2023-01-12T13:49:40.923Z,164.04
2023-01-12T13:50:40.908Z,163.59
2023-01-12T13:51:40.886Z,164.97
2023-01-12T13:52:40.874Z,163.17
2023-01-12T13:53:40.860Z,161.94
2023-01-12T13:54:40.845Z,166.27
2023-01-12T13:55:40.847Z,160.94
2023-01-12T13:56:40.815Z,162.34
2023-01-12T13:57:40.796Z,161.02
2023-01-12T13:58:40.782Z,160.27
2023-01-12T13:59:40.772Z,160.89
2023-01-12T14:00:40.764Z,163.20
2023-01-12T14:01:40.834Z,160.94
2023-01-12T14:02:40.778Z,161.35
2023-01-12T14:03:40.719Z,158.84
2023-01-12T14:04:40.709Z,159.82
2023-01-12T14:05:40.702Z,158.47
2023-01-12T14:06:40.687Z,158.02
2023-01-12T14:07:40.676Z,160.27
2023-01-12T14:08:50.621Z,160.16
2023-01-12T14:09:41.644Z,160.31
2023-01-12T14:10:40.627Z,160.51
2023-01-12T14:11:40.611Z,158.92
2023-01-12T14:12:40.603Z,157.14
2023-01-12T14:13:40.575Z,158.07
2023-01-12T14:14:40.561Z,157.12
2023-01-12T14:15:40.545Z,156.53
2023-01-12T14:16:40.536Z,157.37
2023-01-12T14:17:40.516Z,155.71
2023-01-12T14:18:40.509Z,155.45
2023-01-12T14:19:40.481Z,155.01
2023-01-12T14:20:40.518Z,154.96
2023-01-12T14:21:40.452Z,153.88
2023-01-12T14:22:40.436Z,155.20
2023-01-12T14:23:40.523Z,155.41
2023-01-12T14:24:40.400Z,151.73
2023-01-12T14:25:40.388Z,153.49
2023-01-12T14:26:40.376Z,152.12
2023-01-12T14:27:40.347Z,153.10
2023-01-12T14:28:40.348Z,151.27
2023-01-12T14:29:40.306Z,152.65
2023-01-12T14:30:40.296Z,153.17
2023-01-12T14:31:40.324Z,151.45
2023-01-12T14:32:40.243Z,151.28
2023-01-12T14:33:40.230Z,150.47
2023-01-12T14:34:40.181Z,150.09
2023-01-12T14:35:40.154Z,150.83
2023-01-12T14:36:40.132Z,148.50
2023-01-12T14:37:40.117Z,150.73
2023-01-12T14:38:40.083Z,151.03
2023-01-12T14:39:40.049Z,150.90
2023-01-12T14:40:40.109Z,148.32
2023-01-12T14:41:40.000Z,149.05
2023-01-12T14:42:39.990Z,148.44
2023-01-12T14:43:39.957Z,149.29
2023-01-12T14:44:39.930Z,147.80
2023-01-12T14:45:39.891Z,148.34
2023-01-12T14:46:39.896Z,149.03
2023-01-12T14:47:39.844Z,147.42
2023-01-12T14:48:39.824Z,146.93
2023-01-12T14:49:39.789Z,148.76
2023-01-12T14:50:39.772Z,148.84
2023-01-12T14:51:39.781Z,147.53
2023-01-12T14:52:39.714Z,147.55
2023-01-12T14:53:39.689Z,145.58
2023-01-12T14:54:39.666Z,145.97
2023-01-12T14:55:39.661Z,146.06
2023-01-12T14:56:39.622Z,148.62
2023-01-12T14:57:39.592Z,147.86
2023-01-12T14:58:39.573Z,146.92
2023-01-12T14:59:39.541Z,146.19
2023-01-12T15:00:39.652Z,146.37
2023-01-12T15:01:39.613Z,146.44
2023-01-12T15:02:39.465Z,146.80
2023-01-12T15:03:44.111Z,145.47
2023-01-12T15:04:39.469Z,146.36
2023-01-12T15:05:39.391Z,146.43
2023-01-12T15:06:39.382Z,147.15
2023-01-12T15:07:39.348Z,147.19
2023-01-12T15:08:39.335Z,146.92
2023-01-12T15:09:39.302Z,146.23
2023-01-12T15:10:39.276Z,144.63
2023-01-12T15:11:39.247Z,144.66
2023-01-12T15:12:39.227Z,145.42
2023-01-12T15:13:39.198Z,144.84
2023-01-12T15:14:39.173Z,144.76
2023-01-12T15:15:39.149Z,144.91
2023-01-12T15:16:39.169Z,144.31
2023-01-12T15:17:39.108Z,143.81
2023-01-12T15:18:39.072Z,141.96
2023-01-12T15:19:39.052Z,143.69
2023-01-12T15:20:39.025Z,144.13
2023-01-12T15:21:39.004Z,144.22
2023-01-12T15:22:38.983Z,144.45
2023-01-12T15:23:38.963Z,142.35
2023-01-12T15:24:38.945Z,144.04
2023-01-12T15:25:38.919Z,143.15
2023-01-12T15:26:38.904Z,143.84
2023-01-12T17:14:37.387Z,140.67
2023-01-12T17:15:37.451Z,139.39
2023-01-12T17:16:37.364Z,139.67
2023-01-12T17:17:37.358Z,139.92
2023-01-12T17:18:37.356Z,137.92
2023-01-12T17:19:37.352Z,139.45
2023-01-12T17:20:37.316Z,137.26
2023-01-12T17:21:37.312Z,140.81
2023-01-12T17:22:37.298Z,138.30
2023-01-12T17:23:37.282Z,138.41
2023-01-12T17:24:37.268Z,140.19
2023-01-12T17:25:37.259Z,136.99
2023-01-12T17:26:37.265Z,140.05
2023-01-12T17:27:37.240Z,140.46
2023-01-12T17:28:37.243Z,141.64
2023-01-12T17:29:37.250Z,139.39
2023-01-12T17:30:37.277Z,139.94
2023-01-12T17:31:37.209Z,141.62
2023-01-12T17:32:37.207Z,139.53
2023-01-12T17:33:37.199Z,140.09
2023-01-12T17:34:37.205Z,137.99
2023-01-12T17:35:37.183Z,138.88
2023-01-12T17:36:37.233Z,136.66
2023-01-12T17:37:37.162Z,140.21
2023-01-12T17:38:37.165Z,138.99
2023-01-12T17:39:37.153Z,138.68
2023-01-12T17:40:37.129Z,138.64
2023-01-12T17:41:37.115Z,139.53
2023-01-12T17:42:37.105Z,139.72
2023-01-12T17:43:37.101Z,139.92
2023-01-12T17:44:37.074Z,139.91
2023-01-12T17:45:37.062Z,139.93
2023-01-12T17:46:37.120Z,139.60
2023-01-12T17:47:37.049Z,141.69
2023-01-12T17:48:37.025Z,138.48
2023-01-12T17:49:37.026Z,139.91
2023-01-12T17:50:37.001Z,139.60
2023-01-12T17:51:36.992Z,139.35
2023-01-12T17:52:37.008Z,141.74
2023-01-12T17:53:36.974Z,141.26
2023-01-12T17:54:36.948Z,140.56
2023-01-12T17:55:47.209Z,140.38
2023-01-12T17:56:37.929Z,140.57
2023-01-12T17:57:36.931Z,140.72
2023-01-12T17:58:36.896Z,141.64
2023-01-12T17:59:36.936Z,141.39
2023-01-12T18:00:36.855Z,141.74
2023-01-12T18:01:36.960Z,141.38
2023-01-12T18:02:36.839Z,144.54
2023-01-12T18:03:36.815Z,140.60
2023-01-12T18:04:36.799Z,140.80
2023-01-12T18:05:36.797Z,140.94
2023-01-12T18:06:36.792Z,141.55
2023-01-12T18:07:36.767Z,140.84
2023-01-12T18:08:36.748Z,140.58
2023-01-12T18:09:36.742Z,139.40
2023-01-12T18:10:36.726Z,141.05
2023-01-12T18:11:36.746Z,142.70
2023-01-12T18:12:36.708Z,140.03
2023-01-12T18:13:36.684Z,142.86
2023-01-12T18:14:36.677Z,140.76
2023-01-12T18:15:36.736Z,139.33
2023-01-12T18:16:36.653Z,140.75
2023-01-12T18:17:36.659Z,140.95
2023-01-12T18:18:36.625Z,140.49
2023-01-12T18:19:36.624Z,138.33
2023-01-12T18:20:36.634Z,142.20
2023-01-12T18:21:36.610Z,139.75
2023-01-12T18:22:36.599Z,138.98
2023-01-12T18:23:36.591Z,141.65
2023-01-12T18:24:36.579Z,140.72
2023-01-12T18:25:36.563Z,139.42
2023-01-12T18:26:36.551Z,140.98
2023-01-12T18:27:36.542Z,140.10
2023-01-12T18:28:36.525Z,140.55
2023-01-12T18:29:36.522Z,141.19
2023-01-12T18:30:36.507Z,138.08
2023-01-12T18:31:36.502Z,140.03
2023-01-12T18:32:36.499Z,139.47
2023-01-12T18:33:36.487Z,140.15
2023-01-12T18:34:36.473Z,140.47
2023-01-12T18:35:36.453Z,140.79
2023-01-12T18:36:36.441Z,138.29
2023-01-12T18:37:36.447Z,140.14
2023-01-12T18:38:36.420Z,138.99
2023-01-12T18:39:36.412Z,137.49
2023-01-12T18:40:36.406Z,137.11
2023-01-12T18:41:36.383Z,138.00
2023-01-12T18:42:36.389Z,138.53
2023-01-12T18:43:36.382Z,138.00
2023-01-12T18:44:36.362Z,138.54
2023-01-12T18:45:36.344Z,139.69
2023-01-12T18:46:36.363Z,138.04
2023-01-12T18:47:36.325Z,139.35
2023-01-12T18:48:36.315Z,137.41
2023-01-12T18:49:36.306Z,137.75
2023-01-12T18:50:36.292Z,138.40
2023-01-12T18:51:36.291Z,138.52
2023-01-12T18:52:36.281Z,137.80
2023-01-12T18:53:36.270Z,137.84
2023-01-12T18:54:36.267Z,138.87
2023-01-12T18:55:36.262Z,137.92
2023-01-12T18:56:36.236Z,137.59
2023-01-12T18:57:36.226Z,139.64
2023-01-12T18:58:36.242Z,139.24
2023-01-12T18:59:36.226Z,138.78
2023-01-12T19:00:36.214Z,137.29
2023-01-12T19:01:36.450Z,139.32
2023-01-12T19:02:36.307Z,137.58
2023-01-12T19:03:36.201Z,138.15
2023-01-12T19:04:36.187Z,138.14
2023-01-12T19:05:36.172Z,136.50
2023-01-12T19:06:36.157Z,137.53
2023-01-12T19:07:36.144Z,139.42
2023-01-12T19:08:36.135Z,139.38
2023-01-12T19:09:36.119Z,137.83
2023-01-12T19:10:36.104Z,138.73
2023-01-12T19:11:36.094Z,136.52
2023-01-12T19:12:36.069Z,137.76
2023-01-12T19:13:36.054Z,138.00
2023-01-12T19:14:36.049Z,136.96
2023-01-12T19:15:36.046Z,137.21
2023-01-12T19:16:36.034Z,137.97
2023-01-12T19:17:36.012Z,132.36
2023-01-12T19:18:35.989Z,132.50
2023-01-12T19:19:36.020Z,133.37
2023-01-12T19:20:35.977Z,134.90
2023-01-12T19:21:35.968Z,136.93
2023-01-12T19:22:35.938Z,135.88
2023-01-12T19:23:35.926Z,134.61
2023-01-12T19:24:35.915Z,133.32
2023-01-12T19:25:35.900Z,135.25
2023-01-12T19:26:35.888Z,135.31
2023-01-12T19:27:35.881Z,135.03
2023-01-12T19:28:36.187Z,134.37
2023-01-12T19:29:35.873Z,134.66
2023-01-12T19:30:35.845Z,136.79
2023-01-12T19:31:35.858Z,135.95
2023-01-12T19:32:35.818Z,132.48
2023-01-12T19:33:35.813Z,136.46
2023-01-12T19:34:35.795Z,136.56
2023-01-12T19:35:35.790Z,134.86
2023-01-12T19:36:35.780Z,134.38
2023-01-12T19:37:35.765Z,134.41
2023-01-12T19:38:35.750Z,133.75
2023-01-12T19:39:35.727Z,134.77
2023-01-12T19:40:35.740Z,135.93
2023-01-12T19:41:35.704Z,134.10
2023-01-12T19:42:35.698Z,134.59
2023-01-12T19:43:35.670Z,134.19
2023-01-12T19:44:35.658Z,134.90
2023-01-12T19:45:35.636Z,133.67
2023-01-12T19:46:35.656Z,135.04
2023-01-12T19:47:35.623Z,134.59
2023-01-12T19:48:35.611Z,135.89
2023-01-12T19:49:35.680Z,135.26
2023-01-12T19:50:35.589Z,131.79
2023-01-12T19:51:35.580Z,134.56
2023-01-12T19:52:35.552Z,133.83
2023-01-12T19:53:35.546Z,133.45
2023-01-12T19:54:35.533Z,134.55
2023-01-12T19:55:35.524Z,134.12
2023-01-12T19:56:35.508Z,134.39
2023-01-12T19:57:35.492Z,134.73
2023-01-12T19:58:35.505Z,134.54
2023-01-12T19:59:35.467Z,134.82
2023-01-12T20:00:35.458Z,132.63
2023-01-12T20:01:35.553Z,135.21
2023-01-12T20:02:35.475Z,134.90
2023-01-12T20:03:35.419Z,134.86
2023-01-12T20:04:35.408Z,132.33
2023-01-12T20:05:35.392Z,134.04
2023-01-12T20:06:35.378Z,133.94
2023-01-12T20:07:35.358Z,134.67
2023-01-12T20:08:35.360Z,134.89
2023-01-12T20:09:35.334Z,135.01
2023-01-12T20:10:35.320Z,135.08
2023-01-12T20:11:35.303Z,134.08
2023-01-12T20:12:35.285Z,135.90
2023-01-12T20:13:35.267Z,133.67
2023-01-12T20:14:35.257Z,132.96
2023-01-12T20:15:35.245Z,137.04
2023-01-12T20:16:35.234Z,133.68
2023-01-12T20:17:35.212Z,134.73
2023-01-12T20:18:35.199Z,134.76
2023-01-12T20:19:35.188Z,134.10
2023-01-12T20:20:35.184Z,133.61
2023-01-12T20:21:35.166Z,133.73
2023-01-12T20:22:35.152Z,132.70
2023-01-12T20:23:35.161Z,134.16
2023-01-12T20:24:35.151Z,135.54
2023-01-12T20:25:35.125Z,132.32
2023-01-12T20:26:35.101Z,134.28
2023-01-12T20:27:35.086Z,133.18
2023-01-12T20:28:35.079Z,132.76
2023-01-12T20:29:35.063Z,135.06
2023-01-12T20:30:38.898Z,134.56
2023-01-12T20:31:35.056Z,134.67
2023-01-12T20:32:35.018Z,133.41
2023-01-12T20:33:35.019Z,135.03
2023-01-12T20:34:34.987Z,132.47
2023-01-12T20:35:35.139Z,130.58
2023-01-12T20:36:34.967Z,134.91
2023-01-12T20:37:34.946Z,134.75
2023-01-12T20:38:34.939Z,134.74
2023-01-12T20:39:34.920Z,134.73
2023-01-12T20:40:34.907Z,132.95
2023-01-12T20:41:34.885Z,133.60
2023-01-12T20:42:34.874Z,133.20
2023-01-12T20:43:34.853Z,132.87
2023-01-12T20:44:34.843Z,132.56
2023-01-12T20:45:34.833Z,132.28
2023-01-12T20:46:34.836Z,134.20
2023-01-12T20:47:34.812Z,134.44
2023-01-12T20:48:34.816Z,133.21
2023-01-12T20:49:34.774Z,130.87
2023-01-12T20:50:34.767Z,133.57
2023-01-12T20:51:34.749Z,132.84
2023-01-12T20:52:34.738Z,133.49
2023-01-12T20:53:34.716Z,132.55
2023-01-12T20:54:34.702Z,132.74
2023-01-12T20:55:34.687Z,131.82
2023-01-12T20:56:34.695Z,131.65
2023-01-12T20:57:34.681Z,133.56
2023-01-12T20:58:34.657Z,133.99
2023-01-12T20:59:34.646Z,133.29
2023-01-12T21:00:34.650Z,133.80
2023-01-12T21:01:34.736Z,133.80
2023-01-12T21:02:34.609Z,131.78
2023-01-12T21:03:34.614Z,133.74
2023-01-12T21:04:34.578Z,129.26
2023-01-12T21:05:34.568Z,134.28
2023-01-12T21:06:34.549Z,132.14
2023-01-12T21:07:34.540Z,132.45
2023-01-12T21:08:34.521Z,132.61
2023-01-12T21:09:34.507Z,131.49
2023-01-12T21:10:34.485Z,132.56
2023-01-12T21:11:34.470Z,129.98
2023-01-12T21:12:34.464Z,129.94
2023-01-12T21:13:34.444Z,131.71
2023-01-12T21:14:34.433Z,131.27
2023-01-12T21:15:34.419Z,131.57
2023-01-12T21:16:34.423Z,130.62
2023-01-12T21:17:34.390Z,132.28
2023-01-12T21:18:34.362Z,132.52
2023-01-12T21:19:34.360Z,132.88
2023-01-12T21:20:34.335Z,132.63
2023-01-12T21:21:34.334Z,132.00
2023-01-12T21:22:34.304Z,130.85
2023-01-12T21:23:34.285Z,130.64
2023-01-12T21:24:34.280Z,133.08
2023-01-12T21:25:34.269Z,129.73
2023-01-12T21:26:34.253Z,134.43
2023-01-12T21:27:34.236Z,131.31
2023-01-12T21:28:34.221Z,132.64
2023-01-12T21:29:34.238Z,130.65
2023-01-12T21:30:34.195Z,130.01
2023-01-12T21:31:34.199Z,132.69
2023-01-12T21:32:34.175Z,129.72
2023-01-12T21:33:34.145Z,129.86
2023-01-12T21:34:34.151Z,131.33
2023-01-12T21:35:34.147Z,131.76
2023-01-12T21:36:34.130Z,130.45
2023-01-12T21:37:34.117Z,130.54
2023-01-12T21:38:34.097Z,131.89
2023-01-12T21:39:34.088Z,130.55
2023-01-12T21:40:34.078Z,131.94
2023-01-12T21:41:34.058Z,130.44
2023-01-12T21:42:34.061Z,131.21
2023-01-12T21:43:34.063Z,130.49
2023-01-12T21:44:34.036Z,133.67
2023-01-12T21:45:34.051Z,133.73
2023-01-12T21:46:34.035Z,130.47
2023-01-12T21:47:34.034Z,130.92
2023-01-12T21:48:34.009Z,128.82
2023-01-12T21:49:34.001Z,132.50
2023-01-12T21:50:33.998Z,129.51
2023-01-12T21:51:33.976Z,132.83
2023-01-12T21:52:33.973Z,128.76
2023-01-12T21:53:33.955Z,130.02
2023-01-12T21:54:33.956Z,131.21
2023-01-12T21:55:33.948Z,129.64
2023-01-12T21:56:33.924Z,130.94
2023-01-12T21:57:33.910Z,130.32
2023-01-12T21:58:33.937Z,129.20
2023-01-12T21:59:33.888Z,128.75
2023-01-12T22:00:33.883Z,130.92
2023-01-12T22:01:34.006Z,130.94
2023-01-12T22:02:33.879Z,130.87
2023-01-12T22:03:33.881Z,129.78
2023-01-12T22:04:33.874Z,128.22
2023-01-12T22:05:33.857Z,129.85
2023-01-12T22:06:33.840Z,130.19
2023-01-12T22:07:33.840Z,130.55
2023-01-12T22:08:33.821Z,130.59
2023-01-12T22:09:33.808Z,129.71
2023-01-12T22:10:33.796Z,130.64
2023-01-12T22:11:33.795Z,127.94
2023-01-12T22:12:33.776Z,127.81
2023-01-12T22:13:33.767Z,131.53
2023-01-12T22:14:33.764Z,130.54
2023-01-12T22:15:33.748Z,126.94
2023-01-12T22:16:33.788Z,128.43
2023-01-12T22:17:33.749Z,129.44
2023-01-12T22:18:33.738Z,129.33
2023-01-12T22:19:33.720Z,128.87
2023-01-12T22:20:33.717Z,129.14
2023-01-12T22:21:33.710Z,128.89
2023-01-12T22:22:33.704Z,130.13
2023-01-12T22:23:33.707Z,128.75
2023-01-12T22:24:33.673Z,127.54
2023-01-12T22:25:33.652Z,129.66
2023-01-12T22:26:33.645Z,131.14
2023-01-12T22:27:33.624Z,129.42
2023-01-12T22:28:33.629Z,129.87
2023-01-12T22:29:33.591Z,129.30
2023-01-12T22:30:33.591Z,129.42
2023-01-12T22:31:33.595Z,128.26
2023-01-12T22:32:33.546Z,128.08
2023-01-12T22:33:33.537Z,128.92
2023-01-12T22:34:33.523Z,127.28
2023-01-12T22:35:33.510Z,124.82
2023-01-12T22:36:35.065Z,126.54
2023-01-12T22:37:33.489Z,125.61
2023-01-12T22:38:33.494Z,126.79
2023-01-12T22:39:33.472Z,128.23
2023-01-12T22:40:33.461Z,125.76
2023-01-12T22:41:33.446Z,126.44
2023-01-12T22:42:33.436Z,127.33
2023-01-12T22:43:33.440Z,126.24
2023-01-12T22:44:33.415Z,127.76
2023-01-12T22:45:33.435Z,127.46
2023-01-12T22:46:33.415Z,126.89
2023-01-12T22:47:47.309Z,128.10
2023-01-12T22:48:34.381Z,128.32
2023-01-12T22:49:33.373Z,128.15
2023-01-12T22:50:33.368Z,128.89
2023-01-12T22:51:33.352Z,128.40
2023-01-12T22:52:33.359Z,129.31
2023-01-12T22:53:33.347Z,128.71
2023-01-12T22:54:33.343Z,128.43
2023-01-12T22:55:33.336Z,127.36
2023-01-12T22:56:33.330Z,126.52
2023-01-12T22:57:33.324Z,127.61
2023-01-12T22:58:33.325Z,129.04
2023-01-12T22:59:33.355Z,129.59
2023-01-12T23:00:33.295Z,125.01
2023-01-12T23:01:33.293Z,129.31
2023-01-12T23:02:33.345Z,130.25
2023-01-12T23:03:33.346Z,128.17
2023-01-12T23:04:33.282Z,127.43
2023-01-12T23:05:33.302Z,129.13
2023-01-12T23:06:33.248Z,127.80
2023-01-12T23:07:33.230Z,126.08
2023-01-12T23:08:33.232Z,129.25
2023-01-12T23:09:33.221Z,129.78
2023-01-12T23:10:33.222Z,127.91
2023-01-12T23:11:33.198Z,127.51
2023-01-12T23:12:33.188Z,126.06
2023-01-12T23:13:33.222Z,127.24
2023-01-12T23:14:33.190Z,130.19
2023-01-12T23:15:33.163Z,127.92
2023-01-12T23:16:33.162Z,127.13
2023-01-12T23:17:33.122Z,128.64
2023-01-12T23:18:33.123Z,127.08
2023-01-12T23:19:33.108Z,131.66
2023-01-12T23:20:33.104Z,128.44
2023-01-12T23:21:33.084Z,128.47
2023-01-12T23:22:33.067Z,129.05
2023-01-12T23:23:33.053Z,127.07
2023-01-12T23:24:33.056Z,127.80
2023-01-12T23:25:33.052Z,127.82
2023-01-12T23:26:33.078Z,129.64
2023-01-12T23:27:33.019Z,127.59
2023-01-12T23:28:33.005Z,130.95
2023-01-12T23:29:32.997Z,125.26
2023-01-12T23:30:32.993Z,125.78
2023-01-12T23:31:33.035Z,128.90
2023-01-12T23:32:32.960Z,127.43
2023-01-12T23:33:32.953Z,127.71
2023-01-12T23:34:32.960Z,125.61
2023-01-12T23:35:32.938Z,127.39
2023-01-12T23:36:32.935Z,126.93
2023-01-12T23:37:32.919Z,127.87
2023-01-12T23:38:32.903Z,126.58
2023-01-12T23:39:32.900Z,127.48